11:31
Airports
Links
Donate
Help keep this website running!
PayPal
Bitcoin
METAR
KWRL 111053Z AUTO 20003KT 10SM CLR M09/M11 A3040 RMK AO2 SLP333 T10941111
Current Weather Conditions at KWRL
VFR 10:53:00 11-12-17
Automated station, no observer
Altimeter:30.40 hg
Temp:-9.4°c 16°f
Dew point:-11.1°c 12°f
Wind:3 knots, 3.5 mph, 2 m/s, from 200°
Visibility:10.0 statute miles
(CLR) Clear
Past METAR reports
VFR 09:53:00 11-12-17
Automated station, no observer
Altimeter:30.40 hg
Temp:-10.0°c 14°f
Dew point:-11.7°c 12°f
Wind:5 knots, 5.8 mph, 3 m/s, from 200°
Visibility:10.0 statute miles
(CLR) Clear
KWRL 110953Z AUTO 20005KT 10SM CLR M10/M12 A3040 RMK AO2 SLP332 T11001117
VFR 08:53:00 11-12-17
Automated station, no observer
Altimeter:30.39 hg
Temp:-10.0°c 14°f
Dew point:-11.1°c 12°f
Wind:0 knots, 0 mph, 0 m/s,
Variable direction
Visibility:10.0 statute miles
(CLR) Clear
KWRL 110853Z AUTO 00000KT 10SM CLR M10/M11 A3039 RMK AO2 SLP331 T11001111 55000
VFR 07:53:00 11-12-17
Automated station, no observer
Altimeter:30.39 hg
Temp:-7.8°c 19°f
Dew point:-9.4°c 16°f
Wind:4 knots, 4.6 mph, 2 m/s, from 160°
Visibility:10.0 statute miles
(CLR) Clear
KWRL 110753Z AUTO 16004KT 10SM CLR M08/M09 A3039 RMK AO2 SLP326 T10781094
VFR 06:53:00 11-12-17
Automated station, no observer
Altimeter:30.39 hg
Temp:-8.3°c 18°f
Dew point:-10.0°c 14°f
Wind:3 knots, 3.5 mph, 2 m/s, from 100°
Visibility:10.0 statute miles
(CLR) Clear
KWRL 110653Z AUTO 10003KT 10SM CLR M08/M10 A3039 RMK AO2 SLP337 T10831100 400831122
VFR 05:53:00 11-12-17
Automated station, no observer
Altimeter:30.40 hg
Temp:-6.1°c 21°f
Dew point:-8.3°c 18°f
Wind:6 knots, 6.9 mph, 3 m/s, from 230°
Visibility:10.0 statute miles
(CLR) Clear
KWRL 110553Z AUTO 23006KT 10SM CLR M06/M08 A3040 RMK AO2 SLP339 T10611083 10006 21078 51015
TAF
KWRL 111126Z 1112/1212 VRB05KT P6SM SCT250
Forecast at KWRL
12:00 11-12-17 to 12:00 12-12-17
Wind:5 Knots from 360°
Visibility:6.21 statute miles
25000SCT Scattered